Time;durP1;ratioP1;P1;durP2;ratioP2;P2;SDS_P1;SDS_P2;PMS_P1;PMS_P2;Temp;Humidity;BMP_temperature;BMP_pressure;BME280_temperature;BME280_humidity;BME280_pressure;Samples;Min_cycle;Max_cycle;Signal;HPM_P1;HPM_P2
2022/04/23 00:01:21;;;;;;;5.93;4.10;;;;;;;;;;6247708;22;20170;-90
2022/04/23 01:12:05;;;;;;;8.82;5.25;;;;;;;;;;6254076;22;20203;-89
2022/04/23 01:15:13;;;;;;;10.27;5.93;;;;;;;;;;6229467;22;20186;-90
2022/04/23 01:18:23;;;;;;;14.90;6.18;;;;;;;;;;6245770;22;20182;-89
2022/04/23 01:21:30;;;;;;;8.57;5.43;;;;;;;;;;6243267;22;20157;-89
2022/04/23 02:14:29;;;;;;;10.65;6.63;;;;;;;;;;6202794;22;20189;-87
2022/04/23 02:21:54;;;;;;;12.27;6.55;;;;;;;;;;6201690;22;20177;-89
2022/04/23 02:25:00;;;;;;;10.23;6.40;;;;;;;;;;6185580;23;20237;-90
2022/04/23 02:28:05;;;;;;;11.07;6.88;;;;;;;;;;6183602;23;20172;-89
2022/04/23 02:31:11;;;;;;;11.38;6.82;;;;;;;;;;6183886;23;20153;-90
2022/04/23 07:10:44;;;;;;;19.15;9.20;;;;;;;;;;6113272;23;20169;-88
2022/04/23 07:13:51;;;;;;;16.85;8.88;;;;;;;;;;6097294;23;20178;-87
2022/04/23 07:16:57;;;;;;;18.60;8.90;;;;;;;;;;6094170;23;20182;-89
2022/04/23 07:20:02;;;;;;;18.63;8.30;;;;;;;;;;6098433;23;20182;-88
2022/04/23 07:26:32;;;;;;;16.52;7.82;;;;;;;;;;6095352;23;20167;-90
2022/04/23 07:29:37;;;;;;;12.98;6.97;;;;;;;;;;6097582;23;20174;-90
2022/04/23 07:32:42;;;;;;;11.07;6.32;;;;;;;;;;6098178;23;20686;-89
2022/04/23 07:39:10;;;;;;;9.65;5.38;;;;;;;;;;6096212;23;20166;-88
2022/04/23 07:42:18;;;;;;;11.02;5.93;;;;;;;;;;6096451;23;20170;-90
2022/04/23 07:45:23;;;;;;;11.18;5.32;;;;;;;;;;6092597;23;20196;-88
2022/04/23 07:48:28;;;;;;;11.95;5.60;;;;;;;;;;6093567;23;20174;-89
2022/04/23 07:51:33;;;;;;;10.10;5.18;;;;;;;;;;6091954;23;20166;-88
2022/04/23 07:54:43;;;;;;;10.65;5.90;;;;;;;;;;6091980;23;20218;-90
2022/04/23 07:57:51;;;;;;;10.90;5.78;;;;;;;;;;6092699;23;20177;-88
2022/04/23 08:00:57;;;;;;;11.93;6.22;;;;;;;;;;6108629;23;20174;-89
2022/04/23 08:04:03;;;;;;;13.93;6.10;;;;;;;;;;6091467;23;20194;-88
2022/04/23 08:07:09;;;;;;;9.43;5.13;;;;;;;;;;6093975;23;20202;-88
2022/04/23 08:10:13;;;;;;;10.65;5.50;;;;;;;;;;6095452;23;20166;-89
2022/04/23 08:13:20;;;;;;;10.55;5.57;;;;;;;;;;6095035;23;20264;-88
2022/04/23 08:16:28;;;;;;;9.65;5.53;;;;;;;;;;6098588;23;20177;-90
2022/04/23 22:19:41;;;;;;;24.20;12.52;;;;;;;;;;6202333;22;20556;-86
2022/04/23 22:22:46;;;;;;;23.90;12.25;;;;;;;;;;6238850;23;20167;-87
2022/04/23 22:25:51;;;;;;;21.42;11.75;;;;;;;;;;6238572;23;20162;-87
2022/04/23 22:28:56;;;;;;;18.90;10.30;;;;;;;;;;6236721;23;20166;-88
2022/04/23 22:32:01;;;;;;;22.20;12.00;;;;;;;;;;6238433;23;20302;-88
2022/04/23 22:35:08;;;;;;;18.05;10.50;;;;;;;;;;6237747;23;20214;-88
2022/04/23 22:38:15;;;;;;;18.50;10.25;;;;;;;;;;6237885;23;20167;-89
2022/04/23 22:41:20;;;;;;;22.02;11.07;;;;;;;;;;6239085;23;20178;-87
2022/04/23 22:44:27;;;;;;;23.75;12.15;;;;;;;;;;6237577;23;20170;-88
2022/04/23 22:47:33;;;;;;;25.40;12.88;;;;;;;;;;6238086;23;20178;-87
2022/04/23 22:50:39;;;;;;;20.65;11.13;;;;;;;;;;6237587;23;20505;-90
2022/04/23 22:53:44;;;;;;;16.83;10.20;;;;;;;;;;6238128;23;20190;-88
2022/04/23 22:56:49;;;;;;;22.73;10.43;;;;;;;;;;6238399;23;20295;-89
2022/04/23 22:59:54;;;;;;;17.23;10.35;;;;;;;;;;6239896;23;20167;-88
2022/04/23 23:02:59;;;;;;;20.48;10.38;;;;;;;;;;6238613;22;20166;-88
2022/04/23 23:06:06;;;;;;;25.10;11.57;;;;;;;;;;6238312;23;20202;-89
2022/04/23 23:09:11;;;;;;;22.75;11.82;;;;;;;;;;6238762;23;20640;-90
2022/04/23 23:12:17;;;;;;;19.75;10.93;;;;;;;;;;6239381;23;20286;-90
2022/04/23 23:15:22;;;;;;;18.52;10.82;;;;;;;;;;6238456;23;20190;-89
2022/04/23 23:18:29;;;;;;;22.48;11.00;;;;;;;;;;6236833;23;20289;-89
2022/04/23 23:21:36;;;;;;;20.52;11.57;;;;;;;;;;6238962;23;20171;-90
2022/04/23 23:24:41;;;;;;;19.65;10.27;;;;;;;;;;6238551;23;20162;-88
2022/04/23 23:27:56;;;;;;;22.35;11.95;;;;;;;;;;6239225;23;20159;-87
2022/04/23 23:31:02;;;;;;;22.80;12.80;;;;;;;;;;6239458;23;20162;-89
2022/04/23 23:34:07;;;;;;;21.75;12.10;;;;;;;;;;6235535;23;20572;-86
2022/04/23 23:37:13;;;;;;;18.85;11.07;;;;;;;;;;6237950;23;20197;-88
2022/04/23 23:40:18;;;;;;;22.10;12.55;;;;;;;;;;6238905;23;20170;-88
2022/04/23 23:43:23;;;;;;;23.02;11.23;;;;;;;;;;6238053;23;20174;-87
2022/04/23 23:46:29;;;;;;;20.80;11.77;;;;;;;;;;6237933;23;20170;-89
2022/04/23 23:49:34;;;;;;;20.33;10.77;;;;;;;;;;6238964;23;20170;-88
2022/04/23 23:52:40;;;;;;;25.33;11.55;;;;;;;;;;6239063;23;20257;-89
2022/04/23 23:55:45;;;;;;;22.73;10.20;;;;;;;;;;6238691;23;20309;-88
2022/04/23 23:58:50;;;;;;;20.13;11.43;;;;;;;;;;6237900;23;20166;-90
